Time;durP1;ratioP1;P1;durP2;ratioP2;P2;SDS_P1;SDS_P2;PMS_P1;PMS_P2;Temp;Humidity;BMP_temperature;BMP_pressure;BME280_temperature;BME280_humidity;BME280_pressure;Samples;Min_cycle;Max_cycle;Signal;HPM_P1;HPM_P2
2023/02/01 00:01:11;;;;;;;2.25;1.13;;;;;;;;;;4613464;27;20491;-65
2023/02/01 00:03:21;;;;;;;2.40;1.10;;;;;;;;;;4613034;27;20057;-65
2023/02/01 00:05:31;;;;;;;2.58;1.13;;;;;;;;;;4613147;27;20123;-65
2023/02/01 00:07:42;;;;;;;2.03;1.17;;;;;;;;;;4612986;27;20026;-65
2023/02/01 00:09:52;;;;;;;2.13;1.10;;;;;;;;;;4614661;27;20456;-65
2023/02/01 00:12:03;;;;;;;2.35;1.20;;;;;;;;;;4614311;27;20078;-65
2023/02/01 00:14:13;;;;;;;2.70;1.23;;;;;;;;;;4613380;27;20035;-65
2023/02/01 00:16:25;;;;;;;2.30;1.00;;;;;;;;;;4612322;27;20031;-66
2023/02/01 00:18:36;;;;;;;2.42;1.20;;;;;;;;;;4614196;27;20042;-65
2023/02/01 00:20:46;;;;;;;2.63;1.15;;;;;;;;;;4613395;27;20042;-65
2023/02/01 00:22:57;;;;;;;1.75;1.00;;;;;;;;;;4613708;27;20043;-65
2023/02/01 00:25:07;;;;;;;2.90;1.42;;;;;;;;;;4614461;27;20027;-65
2023/02/01 00:27:20;;;;;;;1.83;1.08;;;;;;;;;;4593725;27;20036;-64
2023/02/01 00:29:30;;;;;;;2.70;1.25;;;;;;;;;;4602163;27;20042;-64
2023/02/01 00:31:41;;;;;;;2.20;1.10;;;;;;;;;;4613056;27;20038;-64
2023/02/01 00:33:51;;;;;;;2.28;1.40;;;;;;;;;;4615768;27;20483;-63
2023/02/01 00:36:03;;;;;;;1.80;1.20;;;;;;;;;;4615398;27;20073;-63
2023/02/01 00:38:13;;;;;;;2.13;1.17;;;;;;;;;;4618066;27;20035;-66
2023/02/01 00:40:24;;;;;;;2.40;1.40;;;;;;;;;;4618321;27;20039;-64
2023/02/01 00:42:34;;;;;;;1.80;1.27;;;;;;;;;;4618174;27;20073;-64
2023/02/01 00:44:44;;;;;;;2.30;1.40;;;;;;;;;;4616872;27;20039;-64
2023/02/01 00:46:55;;;;;;;1.90;1.20;;;;;;;;;;4618511;27;20039;-64
2023/02/01 00:49:07;;;;;;;3.03;1.45;;;;;;;;;;4615926;27;20100;-64
2023/02/01 00:51:18;;;;;;;2.45;1.38;;;;;;;;;;4617198;27;20064;-64
2023/02/01 00:53:29;;;;;;;1.85;1.20;;;;;;;;;;4617699;27;20038;-64
2023/02/01 00:55:39;;;;;;;2.83;1.55;;;;;;;;;;4617806;27;20039;-64
2023/02/01 00:57:49;;;;;;;2.65;1.50;;;;;;;;;;4616605;27;20057;-65
2023/02/01 01:00:00;;;;;;;1.95;1.40;;;;;;;;;;4615530;27;20031;-65
2023/02/01 01:02:12;;;;;;;2.97;1.70;;;;;;;;;;4616535;27;20126;-65
2023/02/01 01:04:23;;;;;;;2.08;1.40;;;;;;;;;;4617275;27;20035;-65
2023/02/01 01:06:33;;;;;;;2.63;1.70;;;;;;;;;;4617309;27;20791;-65
2023/02/01 01:08:44;;;;;;;2.38;1.40;;;;;;;;;;4616379;27;20059;-65
2023/02/01 01:10:54;;;;;;;2.33;1.55;;;;;;;;;;4616444;27;21061;-65
2023/02/01 01:13:05;;;;;;;2.97;1.65;;;;;;;;;;4631685;27;20030;-65
2023/02/01 01:15:15;;;;;;;3.35;1.60;;;;;;;;;;4614059;27;20102;-65
2023/02/01 01:17:25;;;;;;;3.13;1.90;;;;;;;;;;4617239;27;20043;-64
2023/02/01 01:19:36;;;;;;;2.58;1.58;;;;;;;;;;4617021;27;20084;-64
2023/02/01 01:21:46;;;;;;;2.53;1.70;;;;;;;;;;4616998;27;20116;-64
2023/02/01 01:23:56;;;;;;;2.70;1.60;;;;;;;;;;4616860;27;20084;-65
2023/02/01 01:26:08;;;;;;;2.92;1.70;;;;;;;;;;4617494;27;20031;-64
2023/02/01 01:28:18;;;;;;;2.47;1.70;;;;;;;;;;4618454;27;20031;-64
2023/02/01 01:30:28;;;;;;;2.65;1.80;;;;;;;;;;4617583;27;20479;-65
2023/02/01 01:32:39;;;;;;;3.00;1.83;;;;;;;;;;4614753;27;20019;-65
2023/02/01 01:34:49;;;;;;;2.65;1.55;;;;;;;;;;4615890;27;20049;-64
2023/02/01 01:37:00;;;;;;;2.60;1.90;;;;;;;;;;4615663;27;20117;-65
2023/02/01 01:39:10;;;;;;;2.85;1.98;;;;;;;;;;4614898;27;20035;-65
2023/02/01 01:41:22;;;;;;;4.22;1.85;;;;;;;;;;4615194;27;20525;-65
2023/02/01 01:43:52;;;;;;;2.50;1.75;;;;;;;;;;4613384;27;20611;-65
2023/02/01 01:46:03;;;;;;;3.03;1.80;;;;;;;;;;4604712;27;20060;-65
2023/02/01 01:48:13;;;;;;;2.40;1.70;;;;;;;;;;4615359;27;20083;-65
2023/02/01 01:50:33;;;;;;;2.25;1.70;;;;;;;;;;4615969;27;20111;-65
2023/02/01 01:52:45;;;;;;;2.97;2.00;;;;;;;;;;4614019;27;20023;-65
2023/02/01 01:54:57;;;;;;;3.45;1.83;;;;;;;;;;4615352;27;20035;-65
2023/02/01 01:57:11;;;;;;;2.20;1.63;;;;;;;;;;4614106;27;20106;-65
2023/02/01 01:59:22;;;;;;;1.90;1.60;;;;;;;;;;4615447;27;20039;-65
2023/02/01 02:01:33;;;;;;;2.58;1.50;;;;;;;;;;4616420;27;20351;-65
2023/02/01 02:03:44;;;;;;;2.50;1.63;;;;;;;;;;4616861;27;20042;-65
2023/02/01 02:05:57;;;;;;;3.00;1.80;;;;;;;;;;4616480;27;20089;-64
2023/02/01 02:08:07;;;;;;;2.30;1.60;;;;;;;;;;4613239;27;20023;-65
2023/02/01 02:10:17;;;;;;;2.30;1.50;;;;;;;;;;4614546;27;20035;-65
2023/02/01 02:12:28;;;;;;;2.50;1.50;;;;;;;;;;4615567;27;20031;-66
2023/02/01 02:14:39;;;;;;;1.73;1.50;;;;;;;;;;4614613;27;20863;-64
2023/02/01 02:17:02;;;;;;;1.92;1.40;;;;;;;;;;4612472;27;20108;-65
2023/02/01 02:19:31;;;;;;;1.75;1.30;;;;;;;;;;4614006;27;20093;-65
2023/02/01 02:21:53;;;;;;;2.30;1.50;;;;;;;;;;4615422;27;20035;-65
2023/02/01 02:24:22;;;;;;;2.20;1.40;;;;;;;;;;4614602;27;20031;-65
2023/02/01 02:26:46;;;;;;;2.35;1.23;;;;;;;;;;4615336;27;20063;-65
2023/02/01 02:29:00;;;;;;;2.60;1.48;;;;;;;;;;4612241;27;20043;-65
2023/02/01 02:31:29;;;;;;;2.25;1.00;;;;;;;;;;4602253;27;20054;-65
2023/02/01 02:33:42;;;;;;;2.40;1.23;;;;;;;;;;4614746;27;20031;-65
2023/02/01 02:36:01;;;;;;;1.92;1.10;;;;;;;;;;4600980;27;20602;-65
2023/02/01 02:38:25;;;;;;;2.25;1.20;;;;;;;;;;4614191;27;20035;-65
2023/02/01 02:40:46;;;;;;;3.00;1.10;;;;;;;;;;4615376;27;20582;-65
2023/02/01 02:48:21;;;;;;;2.13;1.17;;;;;;;;;;4612407;27;20170;-65
2023/02/01 02:55:40;;;;;;;2.00;1.02;;;;;;;;;;4612186;27;20629;-65
2023/02/01 03:05:21;;;;;;;2.08;1.00;;;;;;;;;;4613522;27;20030;-65
2023/02/01 03:07:44;;;;;;;1.83;1.00;;;;;;;;;;4597857;27;20023;-65
2023/02/01 03:09:54;;;;;;;1.67;1.00;;;;;;;;;;4618041;27;20043;-65
2023/02/01 03:14:40;;;;;;;2.05;1.08;;;;;;;;;;4613280;27;20042;-65
2023/02/01 03:16:54;;;;;;;1.85;0.93;;;;;;;;;;4612942;27;20137;-65
2023/02/01 03:19:14;;;;;;;1.83;0.90;;;;;;;;;;4614507;27;20072;-65
2023/02/01 03:21:28;;;;;;;1.40;0.90;;;;;;;;;;4613547;27;20056;-64
2023/02/01 03:23:39;;;;;;;1.85;1.00;;;;;;;;;;4613798;27;20570;-65
2023/02/01 03:25:51;;;;;;;1.42;0.82;;;;;;;;;;4614136;27;20079;-65
2023/02/01 03:28:07;;;;;;;1.35;0.82;;;;;;;;;;4613087;27;20031;-65
2023/02/01 03:30:17;;;;;;;1.05;0.82;;;;;;;;;;4615706;27;20045;-65
2023/02/01 03:32:29;;;;;;;1.77;0.82;;;;;;;;;;4601035;27;20031;-65
2023/02/01 03:34:39;;;;;;;2.25;0.88;;;;;;;;;;4612276;27;20035;-65
2023/02/01 03:37:03;;;;;;;1.80;0.88;;;;;;;;;;4613447;27;20031;-65
2023/02/01 03:39:23;;;;;;;1.65;0.90;;;;;;;;;;4613768;27;20967;-65
2023/02/01 03:41:41;;;;;;;2.30;0.80;;;;;;;;;;4612968;27;20047;-65
2023/02/01 03:43:56;;;;;;;2.55;1.00;;;;;;;;;;4602146;27;20042;-65
2023/02/01 03:46:09;;;;;;;1.65;1.00;;;;;;;;;;4613386;27;20039;-65
2023/02/01 03:48:21;;;;;;;2.28;1.10;;;;;;;;;;4613034;27;20070;-65
2023/02/01 03:50:33;;;;;;;2.08;0.90;;;;;;;;;;4613089;27;20058;-65
2023/02/01 03:52:44;;;;;;;2.38;1.13;;;;;;;;;;4613374;27;20033;-65
2023/02/01 03:54:58;;;;;;;2.47;0.90;;;;;;;;;;4612896;27;20030;-65
2023/02/01 03:57:11;;;;;;;1.70;1.00;;;;;;;;;;4612723;27;20035;-65
2023/02/01 03:59:21;;;;;;;2.47;0.90;;;;;;;;;;4612278;27;20150;-65
2023/02/01 04:01:31;;;;;;;2.40;1.08;;;;;;;;;;4614095;27;20042;-63
2023/02/01 04:03:42;;;;;;;2.42;1.00;;;;;;;;;;4612412;27;20142;-64
2023/02/01 04:05:53;;;;;;;2.08;1.10;;;;;;;;;;4612888;27;20065;-63
2023/02/01 04:08:07;;;;;;;2.45;1.13;;;;;;;;;;4611268;27;20027;-64
2023/02/01 04:10:17;;;;;;;1.73;0.95;;;;;;;;;;4610844;27;20035;-64
2023/02/01 04:12:27;;;;;;;1.85;0.90;;;;;;;;;;4613082;27;20050;-63
2023/02/01 04:14:38;;;;;;;1.65;1.00;;;;;;;;;;4612965;27;20035;-64
2023/02/01 04:16:48;;;;;;;1.50;1.00;;;;;;;;;;4613496;27;20046;-64
2023/02/01 04:18:59;;;;;;;1.92;1.00;;;;;;;;;;4610758;27;20057;-64
2023/02/01 04:21:09;;;;;;;1.70;1.00;;;;;;;;;;4615481;27;20031;-64
2023/02/01 04:23:20;;;;;;;2.30;1.10;;;;;;;;;;4612215;27;20234;-64
2023/02/01 04:25:30;;;;;;;2.28;0.90;;;;;;;;;;4612787;27;20046;-64
2023/02/01 04:27:40;;;;;;;1.77;1.00;;;;;;;;;;4612121;27;20045;-64
2023/02/01 04:29:51;;;;;;;1.85;0.85;;;;;;;;;;4611253;27;20082;-64
2023/02/01 04:32:01;;;;;;;1.95;1.00;;;;;;;;;;4613581;27;20023;-63
2023/02/01 04:34:11;;;;;;;2.10;1.10;;;;;;;;;;4612070;27;20505;-64
2023/02/01 04:36:22;;;;;;;1.67;0.90;;;;;;;;;;4613021;27;20164;-64
2023/02/01 04:38:32;;;;;;;2.20;1.10;;;;;;;;;;4613328;27;20046;-64
2023/02/01 04:40:42;;;;;;;2.50;0.98;;;;;;;;;;4611315;27;20065;-64
2023/02/01 04:42:53;;;;;;;2.33;1.00;;;;;;;;;;4613472;27;20477;-64
2023/02/01 04:45:03;;;;;;;1.60;0.93;;;;;;;;;;4613174;27;20047;-64
2023/02/01 04:47:15;;;;;;;2.13;1.10;;;;;;;;;;4612556;27;20035;-64
2023/02/01 04:49:26;;;;;;;2.10;0.90;;;;;;;;;;4612444;27;20039;-64
2023/02/01 04:51:37;;;;;;;2.05;1.00;;;;;;;;;;4614130;27;20039;-64
2023/02/01 04:53:47;;;;;;;2.70;1.00;;;;;;;;;;4613850;27;20031;-64
2023/02/01 04:55:57;;;;;;;2.22;1.02;;;;;;;;;;4614072;27;20034;-63
2023/02/01 04:58:08;;;;;;;2.38;1.15;;;;;;;;;;4612868;27;20035;-64
2023/02/01 05:00:18;;;;;;;2.42;1.17;;;;;;;;;;4611954;27;20061;-64
2023/02/01 05:02:28;;;;;;;2.13;1.15;;;;;;;;;;4611092;27;20035;-64
2023/02/01 05:04:39;;;;;;;2.10;1.00;;;;;;;;;;4612523;27;20023;-64
2023/02/01 05:06:49;;;;;;;1.52;0.80;;;;;;;;;;4613317;27;20551;-64
2023/02/01 05:08:59;;;;;;;1.90;1.10;;;;;;;;;;4612523;27;20062;-64
2023/02/01 05:13:47;;;;;;;2.47;1.10;;;;;;;;;;4614113;27;20039;-64
2023/02/01 05:13:49;;;;;;;2.10;1.02;;;;;;;;;;4613090;27;20031;-64
2023/02/01 05:15:59;;;;;;;2.28;1.00;;;;;;;;;;4613645;27;20042;-64
2023/02/01 05:18:09;;;;;;;1.65;1.00;;;;;;;;;;4612651;27;20585;-64
2023/02/01 05:20:20;;;;;;;1.55;0.80;;;;;;;;;;4613401;27;20471;-64
2023/02/01 05:22:30;;;;;;;2.05;0.90;;;;;;;;;;4615009;27;20073;-64
2023/02/01 05:24:40;;;;;;;2.03;0.85;;;;;;;;;;4616116;27;20455;-64
2023/02/01 05:26:51;;;;;;;1.85;0.85;;;;;;;;;;4614866;27;20458;-64
2023/02/01 05:29:01;;;;;;;1.48;0.80;;;;;;;;;;4615258;27;20126;-64
2023/02/01 05:31:11;;;;;;;2.08;0.80;;;;;;;;;;4616031;27;20578;-64
2023/02/01 05:33:22;;;;;;;1.85;0.85;;;;;;;;;;4614861;27;20023;-63
2023/02/01 05:35:32;;;;;;;2.00;0.85;;;;;;;;;;4615043;27;20034;-64
2023/02/01 05:37:42;;;;;;;2.15;1.00;;;;;;;;;;4615224;27;20034;-66
2023/02/01 05:39:53;;;;;;;1.40;0.80;;;;;;;;;;4615560;27;20057;-65
2023/02/01 05:42:03;;;;;;;3.25;0.95;;;;;;;;;;4615517;27;20043;-65
2023/02/01 05:44:13;;;;;;;2.20;1.00;;;;;;;;;;4615249;27;20039;-65
2023/02/01 05:46:24;;;;;;;1.42;0.80;;;;;;;;;;4615225;27;20605;-65
2023/02/01 05:48:34;;;;;;;1.90;0.93;;;;;;;;;;4616419;27;20046;-65
2023/02/01 05:50:44;;;;;;;2.50;1.10;;;;;;;;;;4616798;27;20031;-65
2023/02/01 05:52:55;;;;;;;2.78;0.80;;;;;;;;;;4615212;27;20035;-65
2023/02/01 05:55:05;;;;;;;3.13;0.95;;;;;;;;;;4615564;27;20039;-65
2023/02/01 05:57:16;;;;;;;1.00;0.70;;;;;;;;;;4615434;27;20035;-65
2023/02/01 05:59:26;;;;;;;1.75;0.82;;;;;;;;;;4617009;27;20475;-66
2023/02/01 06:01:36;;;;;;;1.58;0.82;;;;;;;;;;4613592;27;20050;-66
2023/02/01 06:03:47;;;;;;;1.25;0.80;;;;;;;;;;4614390;27;20031;-65
2023/02/01 06:05:57;;;;;;;2.15;0.90;;;;;;;;;;4615371;27;20036;-66
2023/02/01 06:08:07;;;;;;;2.45;0.98;;;;;;;;;;4614238;27;20057;-65
2023/02/01 06:10:18;;;;;;;1.90;0.90;;;;;;;;;;4614485;27;20035;-66
2023/02/01 06:12:28;;;;;;;1.58;0.90;;;;;;;;;;4615048;27;20066;-65
2023/02/01 06:14:38;;;;;;;1.77;0.80;;;;;;;;;;4614051;27;20084;-65
2023/02/01 06:16:48;;;;;;;1.45;0.88;;;;;;;;;;4613150;27;20062;-65
2023/02/01 06:18:59;;;;;;;2.00;0.93;;;;;;;;;;4614637;27;20056;-65
2023/02/01 06:21:09;;;;;;;1.15;0.73;;;;;;;;;;4613748;27;20058;-66
2023/02/01 06:23:23;;;;;;;1.50;0.73;;;;;;;;;;4613949;27;20122;-66
2023/02/01 06:25:33;;;;;;;2.33;0.90;;;;;;;;;;4613760;27;20027;-66
2023/02/01 06:27:44;;;;;;;1.52;0.70;;;;;;;;;;4616599;27;20415;-66
2023/02/01 06:29:55;;;;;;;1.45;0.70;;;;;;;;;;4613607;27;20108;-65
2023/02/01 06:32:05;;;;;;;2.10;0.90;;;;;;;;;;4614688;27;20513;-66
2023/02/01 06:34:16;;;;;;;1.65;0.88;;;;;;;;;;4614414;27;20524;-65
2023/02/01 06:36:26;;;;;;;2.00;0.90;;;;;;;;;;4613351;27;20035;-64
2023/02/01 06:38:36;;;;;;;2.10;1.10;;;;;;;;;;4614836;27;20043;-66
2023/02/01 06:40:51;;;;;;;2.47;1.25;;;;;;;;;;4614214;27;20081;-65
2023/02/01 06:43:02;;;;;;;1.25;0.90;;;;;;;;;;4615562;27;20595;-65
2023/02/01 06:45:12;;;;;;;2.15;1.00;;;;;;;;;;4613998;27;20042;-65
2023/02/01 06:47:22;;;;;;;2.50;1.15;;;;;;;;;;4613974;27;20122;-66
2023/02/01 06:49:33;;;;;;;1.77;0.90;;;;;;;;;;4612893;27;20035;-65
2023/02/01 06:51:43;;;;;;;1.80;1.10;;;;;;;;;;4614533;27;20035;-65
2023/02/01 06:53:53;;;;;;;2.15;1.10;;;;;;;;;;4614232;27;20015;-65
2023/02/01 06:56:04;;;;;;;1.77;0.90;;;;;;;;;;4615146;27;20028;-65
2023/02/01 06:58:14;;;;;;;1.60;0.95;;;;;;;;;;4614271;27;20110;-65
2023/02/01 07:00:24;;;;;;;2.20;1.00;;;;;;;;;;4613824;27;20051;-65
2023/02/01 07:02:35;;;;;;;2.25;1.00;;;;;;;;;;4614707;27;20053;-65
2023/02/01 07:04:46;;;;;;;1.95;0.80;;;;;;;;;;4614946;27;20124;-65
2023/02/01 07:06:56;;;;;;;2.03;0.75;;;;;;;;;;4613507;27;20613;-65
2023/02/01 07:09:07;;;;;;;2.25;0.80;;;;;;;;;;4613359;27;20035;-64
2023/02/01 07:11:18;;;;;;;1.63;0.90;;;;;;;;;;4595128;27;20044;-64
2023/02/01 07:13:29;;;;;;;1.50;1.00;;;;;;;;;;4613610;27;20217;-65
2023/02/01 07:15:39;;;;;;;1.65;0.82;;;;;;;;;;4613599;27;20042;-66
2023/02/01 07:17:49;;;;;;;1.95;0.98;;;;;;;;;;4614024;27;20115;-66
2023/02/01 07:20:01;;;;;;;2.63;1.02;;;;;;;;;;4616716;27;20031;-66
2023/02/01 07:22:11;;;;;;;2.28;1.00;;;;;;;;;;4614285;27;20073;-66
2023/02/01 07:24:21;;;;;;;1.52;0.80;;;;;;;;;;4612803;27;20106;-66
2023/02/01 07:26:32;;;;;;;1.42;0.85;;;;;;;;;;4612510;27;20035;-65
2023/02/01 07:28:42;;;;;;;1.48;0.80;;;;;;;;;;4610391;27;20487;-66
2023/02/01 07:30:53;;;;;;;1.65;0.90;;;;;;;;;;4613591;27;20032;-65
2023/02/01 07:33:03;;;;;;;2.58;0.65;;;;;;;;;;4614646;27;20510;-66
2023/02/01 07:35:14;;;;;;;1.33;0.90;;;;;;;;;;4615328;27;20042;-65
2023/02/01 07:37:24;;;;;;;2.75;1.10;;;;;;;;;;4610662;27;20035;-66
2023/02/01 07:39:34;;;;;;;2.63;1.10;;;;;;;;;;4614052;27;20046;-66
2023/02/01 07:41:45;;;;;;;1.80;0.93;;;;;;;;;;4612858;27;20050;-66
2023/02/01 07:43:57;;;;;;;1.35;0.80;;;;;;;;;;4611651;27;20138;-66
2023/02/01 07:46:07;;;;;;;2.25;0.90;;;;;;;;;;4612190;27;20627;-65
2023/02/01 07:48:18;;;;;;;1.98;0.90;;;;;;;;;;4611114;27;20035;-66
2023/02/01 07:50:28;;;;;;;1.52;0.80;;;;;;;;;;4613297;27;20556;-66
2023/02/01 07:52:39;;;;;;;2.15;0.93;;;;;;;;;;4612823;27;20045;-66
2023/02/01 07:54:50;;;;;;;2.00;0.90;;;;;;;;;;4613771;27;20028;-63
2023/02/01 07:57:00;;;;;;;1.58;0.88;;;;;;;;;;4611110;27;20487;-63
2023/02/01 07:59:11;;;;;;;1.27;0.90;;;;;;;;;;4615017;27;20035;-64
2023/02/01 08:01:24;;;;;;;2.25;1.35;;;;;;;;;;4612023;27;20387;-64
2023/02/01 08:03:34;;;;;;;1.70;1.10;;;;;;;;;;4612953;27;20042;-64
2023/02/01 08:05:44;;;;;;;2.40;1.00;;;;;;;;;;4612178;27;20046;-64
2023/02/01 08:07:55;;;;;;;1.38;0.80;;;;;;;;;;4614937;27;20028;-65
2023/02/01 08:10:10;;;;;;;1.80;0.90;;;;;;;;;;4611747;27;20039;-64
2023/02/01 08:12:20;;;;;;;2.33;1.00;;;;;;;;;;4612510;27;21172;-64
2023/02/01 08:14:31;;;;;;;2.25;1.10;;;;;;;;;;4612484;27;20039;-64
2023/02/01 08:16:41;;;;;;;2.97;1.13;;;;;;;;;;4612307;27;20766;-64
2023/02/01 08:18:52;;;;;;;1.45;0.85;;;;;;;;;;4612570;27;20447;-64
2023/02/01 08:21:03;;;;;;;1.50;0.90;;;;;;;;;;4613081;27;20054;-64
2023/02/01 08:23:14;;;;;;;2.55;1.10;;;;;;;;;;4610727;27;20031;-64
2023/02/01 08:25:25;;;;;;;2.00;0.90;;;;;;;;;;4612380;27;20039;-64
2023/02/01 08:27:36;;;;;;;2.35;1.00;;;;;;;;;;4612285;27;20145;-64
2023/02/01 08:29:46;;;;;;;2.05;0.80;;;;;;;;;;4613689;27;20039;-64
2023/02/01 08:31:56;;;;;;;1.60;0.93;;;;;;;;;;4614596;27;20497;-64
2023/02/01 08:34:08;;;;;;;1.83;0.90;;;;;;;;;;4614606;27;20039;-65
2023/02/01 08:36:19;;;;;;;1.77;1.00;;;;;;;;;;4612387;27;20112;-64
2023/02/01 08:38:29;;;;;;;1.90;1.00;;;;;;;;;;4611784;27;20073;-64
2023/02/01 08:40:41;;;;;;;1.88;0.90;;;;;;;;;;4612208;27;20047;-63
2023/02/01 08:42:51;;;;;;;1.98;0.90;;;;;;;;;;4611128;27;20100;-63
2023/02/01 08:45:02;;;;;;;2.50;0.95;;;;;;;;;;4612044;27;20063;-63
2023/02/01 08:47:13;;;;;;;1.13;0.70;;;;;;;;;;4611832;27;20076;-63
2023/02/01 08:49:23;;;;;;;1.33;0.90;;;;;;;;;;4610331;27;20046;-62
2023/02/01 08:51:33;;;;;;;1.50;0.90;;;;;;;;;;4593603;27;20035;-63
2023/02/01 08:53:44;;;;;;;2.55;1.02;;;;;;;;;;4612558;27;20053;-63
2023/02/01 08:55:54;;;;;;;1.95;1.00;;;;;;;;;;4613792;27;20042;-63
2023/02/01 08:58:04;;;;;;;2.35;1.08;;;;;;;;;;4614638;27;20022;-63
2023/02/01 09:00:15;;;;;;;2.22;1.00;;;;;;;;;;4614800;27;20082;-63
2023/02/01 09:02:26;;;;;;;2.42;1.10;;;;;;;;;;4613661;27;20146;-63
2023/02/01 09:04:36;;;;;;;2.13;1.17;;;;;;;;;;4614732;27;20035;-63
2023/02/01 09:06:46;;;;;;;1.92;0.98;;;;;;;;;;4614112;27;20046;-63
2023/02/01 09:08:57;;;;;;;1.58;0.90;;;;;;;;;;4613420;27;20148;-63
2023/02/01 09:11:11;;;;;;;2.47;0.90;;;;;;;;;;4614419;27;20043;-63
2023/02/01 09:13:22;;;;;;;1.42;1.00;;;;;;;;;;4616582;27;20693;-63
2023/02/01 09:15:32;;;;;;;3.22;1.10;;;;;;;;;;4614794;27;20080;-63
2023/02/01 09:17:43;;;;;;;2.05;1.20;;;;;;;;;;4614650;27;20058;-63
2023/02/01 09:19:53;;;;;;;1.50;0.80;;;;;;;;;;4615665;27;20062;-63
2023/02/01 09:22:04;;;;;;;2.03;1.00;;;;;;;;;;4616186;27;20046;-63
2023/02/01 09:24:14;;;;;;;1.70;0.90;;;;;;;;;;4616049;27;20031;-63
2023/02/01 09:26:25;;;;;;;1.63;0.80;;;;;;;;;;4613192;27;20047;-63
2023/02/01 09:28:36;;;;;;;2.28;1.10;;;;;;;;;;4614898;27;20116;-63
2023/02/01 09:30:46;;;;;;;1.75;0.93;;;;;;;;;;4615073;27;20066;-62
2023/02/01 09:32:57;;;;;;;2.47;1.05;;;;;;;;;;4614736;27;20115;-63
2023/02/01 09:35:07;;;;;;;2.25;1.08;;;;;;;;;;4612644;27;20035;-63
2023/02/01 09:37:17;;;;;;;2.47;1.10;;;;;;;;;;4613342;27;20039;-63
2023/02/01 09:39:29;;;;;;;2.15;0.93;;;;;;;;;;4615943;27;20037;-63
2023/02/01 09:41:49;;;;;;;2.05;0.98;;;;;;;;;;4614817;27;20050;-63
2023/02/01 09:44:07;;;;;;;2.35;1.02;;;;;;;;;;4616417;27;20539;-63
2023/02/01 09:46:25;;;;;;;2.13;1.10;;;;;;;;;;4615241;27;20616;-63
2023/02/01 09:48:37;;;;;;;2.80;0.98;;;;;;;;;;4614673;27;20035;-63
2023/02/01 09:50:54;;;;;;;2.42;1.10;;;;;;;;;;4614387;27;20153;-62
2023/02/01 09:53:04;;;;;;;;;;;;;;;;;;4618014;27;20074;-63
2023/02/01 09:55:18;;;;;;;2.13;1.07;;;;;;;;;;4612797;27;20010;-63
2023/02/01 09:57:37;;;;;;;2.03;1.10;;;;;;;;;;4613243;27;20241;-63
2023/02/01 09:59:48;;;;;;;2.75;1.10;;;;;;;;;;4614322;27;20027;-63
2023/02/01 10:02:01;;;;;;;1.77;1.08;;;;;;;;;;4613243;27;20089;-63
2023/02/01 10:04:13;;;;;;;1.75;1.05;;;;;;;;;;4614298;27;20656;-63
2023/02/01 10:06:23;;;;;;;2.38;1.10;;;;;;;;;;4614075;27;21416;-63
2023/02/01 10:08:54;;;;;;;2.50;1.10;;;;;;;;;;4614055;27;20043;-63
2023/02/01 10:11:25;;;;;;;2.33;1.10;;;;;;;;;;4615963;27;20066;-63
2023/02/01 10:13:54;;;;;;;1.92;1.00;;;;;;;;;;4613335;27;20054;-63
2023/02/01 10:16:04;;;;;;;1.67;1.08;;;;;;;;;;4615309;27;21487;-63
2023/02/01 10:18:34;;;;;;;2.17;1.00;;;;;;;;;;4614692;27;20083;-63
2023/02/01 10:20:48;;;;;;;2.55;1.17;;;;;;;;;;4614926;27;20049;-63
2023/02/01 10:23:19;;;;;;;1.83;1.10;;;;;;;;;;4615121;27;20095;-63
2023/02/01 10:25:39;;;;;;;2.25;1.10;;;;;;;;;;4601120;27;20150;-63
2023/02/01 10:27:49;;;;;;;2.20;1.20;;;;;;;;;;4614661;27;20399;-63
2023/02/01 10:30:04;;;;;;;1.95;1.10;;;;;;;;;;4613642;27;20082;-63
2023/02/01 10:32:21;;;;;;;1.90;1.00;;;;;;;;;;4614058;27;20313;-63
2023/02/01 10:34:33;;;;;;;2.13;1.13;;;;;;;;;;4614678;27;20055;-63
2023/02/01 10:36:52;;;;;;;1.50;1.00;;;;;;;;;;4612404;27;21608;-63
2023/02/01 10:39:04;;;;;;;2.28;1.00;;;;;;;;;;4615695;27;20047;-63
2023/02/01 10:41:14;;;;;;;1.95;1.20;;;;;;;;;;4613362;27;20042;-63
2023/02/01 10:43:25;;;;;;;1.98;1.10;;;;;;;;;;4614300;27;20030;-63
2023/02/01 10:45:37;;;;;;;2.53;1.20;;;;;;;;;;4602548;27;20065;-65
2023/02/01 10:47:49;;;;;;;2.63;1.25;;;;;;;;;;4612829;27;20093;-64
2023/02/01 10:50:05;;;;;;;2.05;1.10;;;;;;;;;;4615626;27;20634;-64
2023/02/01 10:52:33;;;;;;;1.10;0.90;;;;;;;;;;4612926;27;20051;-65
2023/02/01 10:54:43;;;;;;;2.03;1.20;;;;;;;;;;4612948;27;20047;-64
2023/02/01 10:56:54;;;;;;;2.92;1.35;;;;;;;;;;4614028;27;20043;-64
2023/02/01 10:59:05;;;;;;;2.15;1.10;;;;;;;;;;4612597;27;20035;-64
2023/02/01 11:01:17;;;;;;;2.22;1.20;;;;;;;;;;4610537;27;20050;-64
2023/02/01 11:03:41;;;;;;;1.45;1.00;;;;;;;;;;4612366;27;20708;-64
2023/02/01 11:05:52;;;;;;;2.25;1.30;;;;;;;;;;4612723;27;20977;-64
2023/02/01 11:08:03;;;;;;;2.20;1.20;;;;;;;;;;4612838;27;20039;-64
2023/02/01 11:10:33;;;;;;;2.25;1.20;;;;;;;;;;4613030;27;20054;-64
2023/02/01 11:12:52;;;;;;;2.67;1.30;;;;;;;;;;4612376;27;20043;-64
2023/02/01 11:15:02;;;;;;;2.85;1.45;;;;;;;;;;4613863;27;21051;-64
2023/02/01 11:17:32;;;;;;;1.80;1.10;;;;;;;;;;4612537;27;20122;-64
2023/02/01 11:19:46;;;;;;;2.38;1.38;;;;;;;;;;4612676;27;20039;-65
2023/02/01 11:21:59;;;;;;;2.40;1.10;;;;;;;;;;4616190;27;20689;-63
2023/02/01 11:24:18;;;;;;;2.15;1.20;;;;;;;;;;4614068;27;20649;-63
2023/02/01 11:26:29;;;;;;;2.53;1.23;;;;;;;;;;4613363;27;21204;-63
2023/02/01 11:28:45;;;;;;;2.70;1.38;;;;;;;;;;4612346;27;20049;-63
2023/02/01 11:30:58;;;;;;;2.20;1.27;;;;;;;;;;4612130;27;20038;-63
2023/02/01 11:33:10;;;;;;;1.73;1.25;;;;;;;;;;4614024;27;20817;-64
2023/02/01 11:35:21;;;;;;;2.40;1.40;;;;;;;;;;4611561;27;20739;-64
2023/02/01 11:37:36;;;;;;;1.80;1.33;;;;;;;;;;4610444;27;20027;-63
2023/02/01 11:39:54;;;;;;;3.42;1.45;;;;;;;;;;4601718;27;20040;-64
2023/02/01 11:42:17;;;;;;;2.05;1.60;;;;;;;;;;4613668;27;20039;-63
2023/02/01 11:44:30;;;;;;;2.00;1.20;;;;;;;;;;4612515;27;20031;-63
2023/02/01 11:46:40;;;;;;;2.05;1.30;;;;;;;;;;4614192;27;20112;-64
2023/02/01 11:48:52;;;;;;;2.28;1.45;;;;;;;;;;4612152;27;20092;-64
2023/02/01 11:51:11;;;;;;;1.33;1.20;;;;;;;;;;4613252;27;20104;-63
2023/02/01 11:53:24;;;;;;;3.20;1.50;;;;;;;;;;4613082;27;20245;-64
2023/02/01 11:55:52;;;;;;;1.90;1.30;;;;;;;;;;4612291;27;20050;-63
2023/02/01 11:58:03;;;;;;;2.17;1.20;;;;;;;;;;4611452;27;20038;-64
2023/02/01 12:00:13;;;;;;;1.95;1.10;;;;;;;;;;4614389;27;20039;-63
2023/02/01 12:02:23;;;;;;;2.08;1.40;;;;;;;;;;4614033;27;20035;-65
2023/02/01 12:04:36;;;;;;;2.42;1.25;;;;;;;;;;4612725;27;20506;-66
2023/02/01 12:06:53;;;;;;;2.25;1.50;;;;;;;;;;4613563;27;20063;-65
2023/02/01 12:09:03;;;;;;;;;;;;;;;;;;4601774;27;20031;-65
2023/02/01 12:11:20;;;;;;;2.17;1.50;;;;;;;;;;4612305;27;19923;-65
2023/02/01 12:13:33;;;;;;;1.95;1.23;;;;;;;;;;4613364;27;20868;-66
2023/02/01 12:15:47;;;;;;;2.65;1.35;;;;;;;;;;4612525;27;20074;-66
2023/02/01 12:17:58;;;;;;;3.25;1.60;;;;;;;;;;4611119;27;20623;-66
2023/02/01 12:20:20;;;;;;;1.60;1.10;;;;;;;;;;4614665;27;20112;-65
2023/02/01 12:22:49;;;;;;;2.17;1.40;;;;;;;;;;4630224;27;21596;-65
2023/02/01 12:25:09;;;;;;;1.70;1.20;;;;;;;;;;4595442;27;20051;-65
2023/02/01 12:27:39;;;;;;;1.90;1.30;;;;;;;;;;4612488;27;20840;-65
2023/02/01 12:29:53;;;;;;;2.15;1.27;;;;;;;;;;4607170;27;20170;-65
2023/02/01 12:32:15;;;;;;;3.13;1.50;;;;;;;;;;4616301;27;20100;-65
2023/02/01 12:34:44;;;;;;;1.98;1.25;;;;;;;;;;4616098;27;20027;-65
2023/02/01 12:37:14;;;;;;;2.22;1.30;;;;;;;;;;4613354;27;20055;-65
2023/02/01 12:39:31;;;;;;;2.03;1.17;;;;;;;;;;4615443;27;20031;-65
2023/02/01 12:41:45;;;;;;;2.60;1.35;;;;;;;;;;4616283;27;20642;-65
2023/02/01 12:44:01;;;;;;;2.22;1.27;;;;;;;;;;4616036;27;20035;-65
2023/02/01 12:46:16;;;;;;;2.35;1.30;;;;;;;;;;4614946;27;20046;-66
2023/02/01 12:48:52;;;;;;;2.40;1.40;;;;;;;;;;4616178;27;20050;-65
2023/02/01 12:51:06;;;;;;;2.00;1.30;;;;;;;;;;4610129;27;20802;-65
2023/02/01 12:53:39;;;;;;;2.78;1.92;;;;;;;;;;4614953;27;20030;-65
2023/02/01 12:55:52;;;;;;;3.30;1.60;;;;;;;;;;4615831;27;20039;-64
2023/02/01 12:58:16;;;;;;;2.20;1.27;;;;;;;;;;4613798;27;20936;-66
2023/02/01 13:00:43;;;;;;;2.53;1.23;;;;;;;;;;4616338;27;20043;-64
2023/02/01 13:03:00;;;;;;;2.53;1.40;;;;;;;;;;4615596;27;20043;-65
2023/02/01 13:05:19;;;;;;;2.45;1.33;;;;;;;;;;4615274;27;20040;-65
2023/02/01 13:07:33;;;;;;;2.28;1.20;;;;;;;;;;4616283;27;20039;-65
2023/02/01 13:09:47;;;;;;;1.92;1.17;;;;;;;;;;4615482;27;20027;-66
2023/02/01 13:12:02;;;;;;;2.00;1.27;;;;;;;;;;4615848;27;20039;-66
2023/02/01 13:14:16;;;;;;;1.45;1.05;;;;;;;;;;4613647;27;20096;-66
2023/02/01 13:16:38;;;;;;;1.55;1.15;;;;;;;;;;4616056;27;20722;-67
2023/02/01 13:18:50;;;;;;;2.55;1.40;;;;;;;;;;4617324;27;20031;-65
2023/02/01 13:21:21;;;;;;;2.17;1.23;;;;;;;;;;4616775;27;20548;-66
2023/02/01 13:23:34;;;;;;;1.80;1.20;;;;;;;;;;4622167;27;20031;-66
2023/02/01 13:25:49;;;;;;;1.52;1.30;;;;;;;;;;4615222;27;20510;-66
2023/02/01 13:28:12;;;;;;;1.88;1.35;;;;;;;;;;4613660;27;20628;-66
2023/02/01 13:30:33;;;;;;;1.77;1.30;;;;;;;;;;4620745;27;20247;-66
2023/02/01 13:33:02;;;;;;;1.40;1.08;;;;;;;;;;4612260;27;20074;-66
2023/02/01 13:35:23;;;;;;;2.03;1.30;;;;;;;;;;4612838;27;20039;-66
2023/02/01 13:37:47;;;;;;;1.55;1.13;;;;;;;;;;4601568;27;20067;-65
2023/02/01 13:40:10;;;;;;;2.50;1.45;;;;;;;;;;4616119;27;20040;-66